Time;durP1;ratioP1;P1;durP2;ratioP2;P2;SDS_P1;SDS_P2;PMS_P1;PMS_P2;Temp;Humidity;BMP_temperature;BMP_pressure;BME280_temperature;BME280_humidity;BME280_pressure;Samples;Min_cycle;Max_cycle;Signal;HPM_P1;HPM_P2
2023/07/21 00:00:10;;;;;;;7.68;4.20;;;23.80;44.10;;;;;;6108389;23;114725;-78
2023/07/21 00:02:38;;;;;;;5.20;2.80;;;23.80;42.80;;;;;;6108546;23;114046;-79
2023/07/21 00:05:06;;;;;;;5.78;3.03;;;23.70;44.00;;;;;;6058301;23;118105;-80
2023/07/21 00:07:35;;;;;;;5.78;3.53;;;23.70;44.30;;;;;;6107547;23;114447;-79
2023/07/21 00:10:07;;;;;;;8.30;4.43;;;23.70;44.20;;;;;;6109887;22;114051;-79
2023/07/21 00:12:35;;;;;;;5.60;3.13;;;23.70;44.00;;;;;;6108979;23;114315;-78
2023/07/21 00:15:02;;;;;;;5.65;2.90;;;23.80;44.20;;;;;;6107401;23;114803;-79
2023/07/21 00:17:30;;;;;;;6.32;3.10;;;23.80;44.10;;;;;;6107395;23;115148;-78
2023/07/21 00:20:01;;;;;;;7.20;4.38;;;23.80;43.80;;;;;;6109185;23;114113;-78
2023/07/21 00:22:31;;;;;;;5.57;3.38;;;23.80;42.30;;;;;;6109764;22;114088;-78
2023/07/21 00:25:00;;;;;;;5.30;3.28;;;23.80;44.20;;;;;;6107441;23;114888;-79
2023/07/21 00:27:28;;;;;;;6.25;3.00;;;23.70;43.10;;;;;;6108872;22;114457;-79
2023/07/21 00:29:55;;;;;;;5.93;3.30;;;23.80;43.90;;;;;;6108310;23;114546;-78
2023/07/21 00:32:22;;;;;;;7.78;3.35;;;23.70;43.60;;;;;;6133192;22;114326;-78
2023/07/21 00:34:51;;;;;;;5.50;2.92;;;23.80;43.80;;;;;;6083153;23;115891;-79
2023/07/21 00:37:18;;;;;;;5.65;3.22;;;23.80;44.10;;;;;;6109031;23;114764;-79
2023/07/21 00:39:47;;;;;;;6.28;3.35;;;23.80;43.70;;;;;;6111185;22;114263;-78
2023/07/21 00:42:14;;;;;;;5.03;3.55;;;23.70;43.60;;;;;;6111074;23;114112;-79
2023/07/21 00:44:41;;;;;;;6.25;3.00;;;23.70;43.20;;;;;;6107955;23;114909;-79
2023/07/21 00:47:08;;;;;;;6.85;3.10;;;23.60;42.80;;;;;;6109986;23;114501;-78
2023/07/21 00:49:37;;;;;;;5.40;2.97;;;23.60;43.60;;;;;;6109297;23;114786;-78
2023/07/21 00:52:04;;;;;;;5.47;3.15;;;23.60;44.00;;;;;;6109623;23;114265;-78
2023/07/21 00:54:31;;;;;;;5.82;3.22;;;23.60;44.10;;;;;;6108266;23;114950;-78
2023/07/21 00:56:59;;;;;;;5.82;3.30;;;23.70;43.60;;;;;;6108679;23;114671;-78
2023/07/21 00:59:26;;;;;;;6.15;3.38;;;23.70;43.60;;;;;;6109516;23;113988;-78
2023/07/21 01:01:53;;;;;;;4.85;3.10;;;23.70;43.50;;;;;;6134877;22;114087;-79
2023/07/21 01:04:20;;;;;;;4.85;2.95;;;23.70;43.80;;;;;;6108548;23;115501;-79
2023/07/21 01:06:47;;;;;;;4.45;3.13;;;23.70;43.90;;;;;;6108583;23;114559;-79
2023/07/21 01:09:17;;;;;;;5.50;2.97;;;23.70;44.10;;;;;;6110236;23;114313;-79
2023/07/21 01:11:44;;;;;;;5.03;3.03;;;23.70;43.90;;;;;;6134400;22;114277;-79
2023/07/21 01:14:11;;;;;;;6.03;3.35;;;23.70;43.60;;;;;;6108615;22;114880;-79
2023/07/21 01:16:43;;;;;;;6.80;3.85;;;23.60;43.70;;;;;;6083689;23;117309;-79
2023/07/21 01:19:15;;;;;;;6.13;3.58;;;23.50;42.70;;;;;;6085891;23;114441;-78
2023/07/21 01:22:10;;;;;;;5.22;3.20;;;23.50;43.60;;;;;;6109756;22;114432;-79
2023/07/21 01:24:49;;;;;;;6.32;3.25;;;23.50;43.90;;;;;;6077881;23;115794;-79
2023/07/21 01:27:21;;;;;;;5.82;3.40;;;23.50;43.30;;;;;;6133669;22;114683;-78
2023/07/21 01:29:49;;;;;;;7.93;3.47;;;23.50;43.80;;;;;;6110859;23;114210;-79
2023/07/21 01:32:18;;;;;;;5.15;3.25;;;23.40;44.10;;;;;;6109335;23;114351;-79
2023/07/21 01:34:45;;;;;;;6.95;3.95;;;23.40;44.30;;;;;;6107694;23;115818;-80
2023/07/21 01:37:13;;;;;;;5.65;3.40;;;23.40;43.50;;;;;;6108463;23;114579;-77
2023/07/21 01:39:40;;;;;;;6.47;3.78;;;23.50;44.10;;;;;;6109213;23;114216;-79
2023/07/21 01:42:07;;;;;;;6.70;3.70;;;23.60;43.60;;;;;;6109406;23;114144;-77
2023/07/21 01:44:34;;;;;;;6.72;3.30;;;23.60;43.90;;;;;;6108216;23;114902;-78
2023/07/21 01:47:02;;;;;;;7.70;3.47;;;23.60;44.10;;;;;;6082955;23;116102;-78
2023/07/21 01:49:30;;;;;;;7.80;4.47;;;23.60;43.80;;;;;;6109175;23;114630;-77
2023/07/21 01:51:58;;;;;;;5.68;3.58;;;23.60;43.50;;;;;;6109691;23;114242;-78
2023/07/21 01:54:31;;;;;;;5.03;3.85;;;23.60;43.70;;;;;;6109185;22;115073;-77
2023/07/21 01:57:06;;;;;;;6.97;4.40;;;23.70;43.50;;;;;;6084344;23;115248;-78
2023/07/21 01:59:33;;;;;;;7.88;4.10;;;23.60;42.90;;;;;;6108829;22;114197;-78
2023/07/21 02:02:00;;;;;;;5.03;3.38;;;23.50;43.80;;;;;;6108967;23;114474;-77
2023/07/21 02:04:28;;;;;;;8.65;4.18;;;23.60;43.90;;;;;;6108245;23;116984;-79
2023/07/21 02:06:55;;;;;;;6.07;3.58;;;23.60;43.10;;;;;;6133037;22;114478;-79
2023/07/21 02:09:22;;;;;;;7.43;3.70;;;23.60;43.60;;;;;;6110536;23;114052;-79
2023/07/21 02:11:49;;;;;;;5.65;3.42;;;23.60;43.70;;;;;;6110598;23;114326;-79
2023/07/21 02:14:37;;;;;;;7.35;3.88;;;23.60;43.90;;;;;;6098740;23;115649;-77
2023/07/21 02:17:06;;;;;;;7.95;4.13;;;23.60;43.30;;;;;;6133506;22;114478;-78
2023/07/21 02:19:34;;;;;;;7.45;4.00;;;23.60;43.40;;;;;;6085060;23;114181;-77
2023/07/21 02:22:01;;;;;;;5.38;3.53;;;23.60;43.60;;;;;;6108395;23;114353;-77
2023/07/21 02:24:30;;;;;;;7.93;4.10;;;23.60;43.80;;;;;;6083380;23;115281;-78
2023/07/21 02:26:59;;;;;;;7.07;3.78;;;23.60;43.20;;;;;;6133060;22;114659;-78
2023/07/21 02:29:28;;;;;;;6.78;3.85;;;23.50;43.70;;;;;;6110589;22;114046;-78
2023/07/21 02:31:56;;;;;;;6.80;3.60;;;23.50;43.80;;;;;;6110768;23;114193;-78
2023/07/21 02:34:23;;;;;;;7.88;4.00;;;23.60;43.80;;;;;;6109603;23;114972;-78
2023/07/21 02:36:53;;;;;;;8.55;4.03;;;23.50;43.50;;;;;;6109484;23;114919;-78
2023/07/21 02:39:20;;;;;;;9.05;4.30;;;23.60;43.60;;;;;;6134118;22;114394;-78
2023/07/21 02:41:47;;;;;;;6.28;3.67;;;23.50;43.50;;;;;;6110982;23;114289;-79
2023/07/21 02:44:14;;;;;;;6.45;3.65;;;23.60;43.60;;;;;;6107976;23;117082;-78
2023/07/21 02:46:42;;;;;;;5.95;3.72;;;23.60;43.40;;;;;;6109570;23;114584;-78
2023/07/21 02:49:09;;;;;;;6.75;3.40;;;23.60;43.40;;;;;;6108220;23;114414;-78
2023/07/21 02:51:37;;;;;;;5.85;3.42;;;23.60;43.40;;;;;;6110403;23;114010;-78
2023/07/21 02:54:04;;;;;;;6.15;3.70;;;23.50;43.30;;;;;;6132430;22;117353;-78
2023/07/21 02:56:32;;;;;;;5.78;3.67;;;23.50;43.30;;;;;;6132904;22;114808;-79
2023/07/21 02:59:07;;;;;;;5.57;3.33;;;23.40;43.60;;;;;;6086273;23;114141;-78
2023/07/21 03:01:34;;;;;;;7.07;3.80;;;23.40;43.60;;;;;;6109225;22;114395;-78
2023/07/21 03:04:03;;;;;;;7.45;3.20;;;23.40;42.50;;;;;;6083554;23;114729;-78
2023/07/21 03:06:34;;;;;;;6.53;4.10;;;23.40;43.40;;;;;;6085049;23;114625;-78
2023/07/21 03:09:05;;;;;;;5.93;3.17;;;23.40;43.50;;;;;;6133810;22;114214;-78
2023/07/21 03:11:32;;;;;;;7.05;3.50;;;23.40;43.30;;;;;;6109827;22;114768;-79
2023/07/21 03:14:14;;;;;;;6.22;3.95;;;23.40;43.10;;;;;;6132554;22;115085;-78
2023/07/21 03:16:41;;;;;;;5.63;3.35;;;23.40;43.30;;;;;;6107933;23;114545;-78
2023/07/21 03:19:10;;;;;;;5.22;3.42;;;23.30;43.70;;;;;;6110284;22;114054;-78
2023/07/21 03:21:38;;;;;;;5.65;3.63;;;23.30;43.40;;;;;;6109323;22;114207;-78
2023/07/21 03:24:07;;;;;;;6.20;3.10;;;23.30;43.20;;;;;;6132923;22;116208;-78
2023/07/21 03:26:34;;;;;;;5.68;3.40;;;23.30;43.10;;;;;;6107891;23;114737;-78
2023/07/21 03:29:03;;;;;;;6.00;3.30;;;23.30;43.40;;;;;;6059580;23;114217;-78
2023/07/21 03:31:32;;;;;;;6.55;3.35;;;23.30;43.50;;;;;;6134035;22;114238;-78
2023/07/21 03:34:05;;;;;;;5.68;3.20;;;23.30;42.90;;;;;;6109749;22;117677;-78
2023/07/21 03:36:33;;;;;;;5.30;3.33;;;23.30;43.50;;;;;;6132949;22;114685;-78
2023/07/21 03:39:00;;;;;;;5.45;3.30;;;23.30;43.20;;;;;;6108245;23;114355;-78
2023/07/21 03:41:28;;;;;;;5.15;3.08;;;23.30;43.10;;;;;;6110434;22;114262;-78
2023/07/21 03:43:55;;;;;;;6.28;3.65;;;23.30;43.50;;;;;;6083553;23;117139;-79
2023/07/21 03:46:22;;;;;;;4.78;2.90;;;23.30;43.40;;;;;;6108028;23;114628;-78
2023/07/21 03:49:11;;;;;;;6.97;3.30;;;23.20;43.60;;;;;;6133528;22;115181;-78
2023/07/21 03:51:43;;;;;;;5.05;3.28;;;23.20;43.50;;;;;;6133932;22;114488;-78
2023/07/21 03:54:14;;;;;;;4.35;3.28;;;23.20;43.50;;;;;;6132482;22;115006;-78
2023/07/21 03:56:41;;;;;;;5.65;3.15;;;23.30;43.40;;;;;;6133099;22;114740;-79
2023/07/21 03:59:10;;;;;;;5.30;3.28;;;23.30;43.10;;;;;;6133367;22;114195;-79
2023/07/21 04:01:37;;;;;;;6.57;4.38;;;23.30;43.00;;;;;;6110062;23;114144;-79
2023/07/21 04:04:06;;;;;;;5.07;3.10;;;23.30;43.40;;;;;;6108518;23;115173;-79
2023/07/21 04:06:33;;;;;;;5.55;3.30;;;23.30;43.30;;;;;;6132519;22;114824;-80
2023/07/21 04:09:00;;;;;;;7.82;3.72;;;23.30;43.40;;;;;;6133343;22;114323;-77
2023/07/21 04:11:28;;;;;;;5.10;3.30;;;23.30;42.80;;;;;;6111027;23;114593;-77
2023/07/21 04:13:58;;;;;;;5.13;3.10;;;23.50;43.30;;;;;;6108872;23;115488;-78
2023/07/21 04:16:25;;;;;;;6.97;4.28;;;23.50;43.00;;;;;;6133652;22;114853;-78
2023/07/21 04:18:52;;;;;;;6.10;3.50;;;23.50;42.10;;;;;;6109928;22;114485;-78
2023/07/21 04:21:19;;;;;;;6.30;3.60;;;23.60;42.80;;;;;;6111586;23;114257;-78
2023/07/21 04:23:47;;;;;;;5.50;3.45;;;23.60;43.00;;;;;;6108839;23;115509;-78
2023/07/21 04:26:14;;;;;;;6.30;3.15;;;23.70;42.80;;;;;;6133779;22;114538;-78
2023/07/21 04:28:42;;;;;;;6.60;3.55;;;23.70;42.60;;;;;;6084511;23;114425;-77
2023/07/21 04:31:09;;;;;;;5.60;3.47;;;23.70;42.40;;;;;;6109657;23;114198;-77
2023/07/21 04:33:50;;;;;;;5.80;3.42;;;23.70;42.40;;;;;;6133693;22;115248;-77
2023/07/21 04:36:17;;;;;;;4.97;3.28;;;23.70;42.60;;;;;;6108768;23;114641;-77
2023/07/21 04:38:45;;;;;;;5.53;3.80;;;23.80;42.50;;;;;;6134420;22;114350;-77
2023/07/21 04:41:16;;;;;;;8.45;4.13;;;23.80;41.60;;;;;;6109646;23;114333;-77
2023/07/21 04:43:46;;;;;;;4.18;3.10;;;23.80;41.20;;;;;;6059707;23;118713;-77
2023/07/21 04:46:13;;;;;;;6.63;3.72;;;23.70;42.50;;;;;;6134014;22;114433;-78
2023/07/21 04:48:43;;;;;;;5.10;3.25;;;23.70;42.50;;;;;;6084824;23;114405;-78
2023/07/21 04:51:14;;;;;;;6.97;3.60;;;23.70;42.30;;;;;;6134663;22;114306;-78
2023/07/21 04:53:42;;;;;;;5.78;3.55;;;23.60;42.00;;;;;;6107826;23;116098;-78
2023/07/21 04:56:09;;;;;;;5.28;3.60;;;23.50;42.50;;;;;;6133091;22;114620;-78
2023/07/21 04:58:44;;;;;;;5.28;3.05;;;23.50;41.70;;;;;;6134407;22;114201;-78
2023/07/21 05:01:11;;;;;;;4.88;3.35;;;23.40;42.70;;;;;;6111083;23;114025;-78
2023/07/21 05:03:39;;;;;;;4.60;3.10;;;23.40;42.60;;;;;;6133758;22;114725;-78
2023/07/21 05:06:09;;;;;;;5.80;3.58;;;23.40;42.20;;;;;;6108556;23;117963;-79
2023/07/21 05:08:38;;;;;;;4.22;2.80;;;23.40;41.20;;;;;;6109356;23;114247;-77
2023/07/21 05:11:09;;;;;;;5.10;3.30;;;23.30;42.50;;;;;;6134868;22;114105;-77
2023/07/21 05:13:37;;;;;;;5.13;3.15;;;23.30;42.50;;;;;;6084775;23;117121;-78
2023/07/21 05:16:28;;;;;;;5.88;3.45;;;23.40;42.30;;;;;;6088568;23;117624;-79
2023/07/21 05:19:04;;;;;;;4.28;2.53;;;23.60;42.40;;;;;;6133681;22;114189;-77
2023/07/21 05:21:49;;;;;;;6.45;3.13;;;23.60;41.80;;;;;;6110844;22;114128;-79
2023/07/21 05:24:33;;;;;;;6.45;4.05;;;23.60;41.10;;;;;;6087138;23;115466;-79
2023/07/21 05:27:01;;;;;;;4.03;2.97;;;23.60;41.70;;;;;;6133252;22;116748;-78
2023/07/21 05:29:39;;;;;;;5.32;3.42;;;23.60;41.80;;;;;;6111676;22;114463;-79
2023/07/21 05:32:07;;;;;;;6.30;3.10;;;23.70;41.50;;;;;;6134307;22;114133;-78
2023/07/21 05:34:34;;;;;;;4.57;2.88;;;23.80;41.50;;;;;;6109765;23;115024;-77
2023/07/21 05:37:05;;;;;;;4.35;2.97;;;23.80;42.00;;;;;;6084789;23;116430;-77
2023/07/21 05:39:33;;;;;;;6.60;3.40;;;23.90;41.80;;;;;;6109362;23;114234;-77
2023/07/21 05:42:01;;;;;;;5.03;3.20;;;24.00;40.50;;;;;;6084903;23;114226;-78
2023/07/21 05:44:33;;;;;;;5.43;3.00;;;24.00;40.70;;;;;;6132661;22;114884;-78
2023/07/21 05:47:00;;;;;;;5.07;3.25;;;23.90;41.50;;;;;;6108207;23;114520;-79
2023/07/21 05:49:28;;;;;;;5.35;3.15;;;23.80;41.60;;;;;;6110196;23;114632;-77
2023/07/21 05:51:56;;;;;;;5.65;3.03;;;23.90;41.70;;;;;;6085265;23;114150;-78
2023/07/21 05:54:39;;;;;;;7.75;4.07;;;23.90;41.90;;;;;;6086534;23;114738;-79
2023/07/21 05:57:06;;;;;;;8.98;3.67;;;24.00;40.90;;;;;;6133261;22;115210;-78
2023/07/21 05:59:41;;;;;;;5.15;3.03;;;23.90;40.90;;;;;;6108810;23;114403;-78
2023/07/21 06:02:08;;;;;;;6.22;3.83;;;24.10;41.50;;;;;;6134557;22;114263;-77
2023/07/21 06:04:36;;;;;;;7.55;3.75;;;24.20;40.30;;;;;;6083843;23;114924;-78
2023/07/21 06:07:36;;;;;;;5.45;3.25;;;24.30;40.00;;;;;;6091210;23;114740;-78
2023/07/21 06:10:22;;;;;;;8.38;4.05;;;24.40;40.80;;;;;;6109816;22;114035;-79
2023/07/21 06:13:01;;;;;;;7.20;4.38;;;24.50;40.20;;;;;;6134073;22;114419;-77
2023/07/21 06:15:51;;;;;;;9.23;5.20;;;24.40;40.50;;;;;;6096526;23;115432;-78
2023/07/21 06:18:27;;;;;;;10.95;6.07;;;24.50;40.30;;;;;;6108251;23;114684;-78
2023/07/21 06:20:54;;;;;;;10.82;6.38;;;24.60;40.20;;;;;;6109252;22;114201;-77
2023/07/21 06:23:23;;;;;;;12.25;6.97;;;24.60;40.10;;;;;;6134027;22;114425;-77
2023/07/21 06:25:51;;;;;;;9.38;5.68;;;24.60;39.70;;;;;;6083770;23;114788;-78
2023/07/21 06:28:18;;;;;;;7.25;4.30;;;24.50;39.50;;;;;;6059552;23;116169;-78
2023/07/21 06:30:45;;;;;;;7.68;4.43;;;24.50;40.60;;;;;;6108894;23;114427;-79
2023/07/21 06:33:24;;;;;;;11.70;5.20;;;24.50;40.30;;;;;;6108655;23;114345;-77
2023/07/21 06:36:11;;;;;;;11.75;6.47;;;24.50;39.70;;;;;;6107537;23;115169;-78
2023/07/21 06:38:58;;;;;;;11.23;5.45;;;24.40;40.20;;;;;;6133045;22;114581;-77
2023/07/21 06:41:36;;;;;;;9.50;5.93;;;24.50;40.10;;;;;;6065054;23;114155;-79
2023/07/21 06:44:11;;;;;;;11.10;5.40;;;24.50;39.90;;;;;;6135279;22;114249;-78
2023/07/21 06:46:47;;;;;;;11.70;5.53;;;24.60;40.40;;;;;;6108205;23;114874;-77
2023/07/21 06:49:35;;;;;;;9.88;5.75;;;24.60;40.10;;;;;;6103653;23;114559;-77
2023/07/21 06:52:24;;;;;;;10.15;5.50;;;24.40;39.80;;;;;;6133817;22;114192;-78
2023/07/21 06:54:51;;;;;;;11.80;5.90;;;24.30;39.90;;;;;;6134071;22;114226;-78
2023/07/21 06:57:19;;;;;;;10.48;5.60;;;24.30;40.10;;;;;;6109168;23;116122;-78
2023/07/21 06:59:47;;;;;;;7.85;4.55;;;24.30;40.00;;;;;;6107833;23;116008;-78
2023/07/21 07:02:14;;;;;;;12.75;5.45;;;24.20;40.30;;;;;;6108333;23;114051;-78
2023/07/21 07:04:41;;;;;;;9.32;5.15;;;24.10;40.40;;;;;;6108767;23;114227;-79
2023/07/21 07:07:08;;;;;;;10.27;4.47;;;24.10;41.10;;;;;;6109304;23;115449;-77
2023/07/21 07:09:36;;;;;;;11.40;4.00;;;24.30;40.60;;;;;;6107902;23;115142;-78
2023/07/21 07:12:06;;;;;;;8.10;4.68;;;24.30;40.40;;;;;;6108908;23;114263;-78
2023/07/21 07:14:34;;;;;;;9.07;4.55;;;24.30;40.60;;;;;;6084418;23;114220;-80
2023/07/21 07:17:01;;;;;;;10.23;4.38;;;24.40;40.50;;;;;;6107894;23;116023;-77
2023/07/21 07:19:30;;;;;;;7.60;4.60;;;24.50;40.30;;;;;;6084228;23;114595;-79
2023/07/21 07:21:59;;;;;;;7.45;4.53;;;24.40;40.00;;;;;;6110384;22;114386;-78
2023/07/21 07:24:26;;;;;;;10.75;4.82;;;24.30;40.00;;;;;;6108847;23;114456;-78
2023/07/21 07:26:54;;;;;;;7.00;4.07;;;24.30;40.40;;;;;;6108697;23;116196;-78
2023/07/21 07:29:24;;;;;;;6.43;4.38;;;24.30;40.10;;;;;;6109062;22;115054;-79
2023/07/21 07:31:51;;;;;;;8.80;4.93;;;24.30;40.30;;;;;;6110301;23;114259;-78
2023/07/21 07:34:20;;;;;;;9.20;5.53;;;24.30;40.50;;;;;;6110120;22;114147;-78
2023/07/21 07:36:47;;;;;;;12.85;5.72;;;24.40;40.60;;;;;;6109189;23;115443;-79
2023/07/21 07:39:15;;;;;;;8.15;5.03;;;24.50;40.30;;;;;;6109198;23;114611;-78
2023/07/21 07:41:43;;;;;;;7.53;5.20;;;24.50;40.80;;;;;;6108651;23;114496;-78
2023/07/21 07:44:11;;;;;;;6.85;4.95;;;24.50;41.00;;;;;;6084166;23;114162;-78
2023/07/21 07:46:38;;;;;;;5.78;3.17;;;24.70;40.70;;;;;;6107937;23;115030;-78
2023/07/21 07:49:05;;;;;;;5.03;3.45;;;24.80;40.40;;;;;;6108802;23;114612;-78
2023/07/21 07:51:33;;;;;;;5.10;3.63;;;25.00;40.20;;;;;;6107947;23;114132;-78
2023/07/21 07:54:01;;;;;;;7.47;4.68;;;25.00;40.10;;;;;;6108512;23;114320;-78
2023/07/21 07:56:28;;;;;;;6.30;3.97;;;25.00;40.20;;;;;;6107688;23;114601;-78
2023/07/21 07:58:57;;;;;;;6.70;4.53;;;25.00;39.90;;;;;;6107706;23;115712;-78
2023/07/21 08:01:24;;;;;;;6.90;3.67;;;25.00;40.10;;;;;;6109838;22;114207;-79
2023/07/21 08:03:52;;;;;;;4.88;3.80;;;24.90;39.80;;;;;;6109923;23;114177;-79
2023/07/21 08:06:19;;;;;;;4.72;2.90;;;25.00;40.10;;;;;;6109028;23;115271;-79
2023/07/21 08:08:46;;;;;;;5.65;3.08;;;25.10;39.90;;;;;;6109520;23;114623;-79
2023/07/21 08:11:13;;;;;;;6.82;3.60;;;25.00;40.10;;;;;;6109924;23;114074;-79
2023/07/21 08:13:40;;;;;;;5.32;3.80;;;25.00;40.30;;;;;;6109768;23;114337;-79
2023/07/21 08:16:09;;;;;;;4.88;2.80;;;25.00;39.90;;;;;;6106918;23;115102;-79
2023/07/21 08:18:36;;;;;;;4.85;3.55;;;25.00;40.10;;;;;;6108868;23;114570;-78
2023/07/21 08:21:20;;;;;;;4.80;3.15;;;25.00;39.70;;;;;;6108270;23;114119;-79
2023/07/21 08:23:48;;;;;;;6.50;3.70;;;25.00;39.70;;;;;;6109186;23;114245;-79
2023/07/21 08:26:16;;;;;;;5.43;3.47;;;25.00;39.50;;;;;;6108867;23;114788;-79
2023/07/21 08:28:43;;;;;;;5.15;3.33;;;25.10;39.60;;;;;;6108663;23;114591;-79
2023/07/21 08:31:11;;;;;;;5.43;3.40;;;25.30;39.50;;;;;;6107986;23;114043;-78
2023/07/21 08:33:39;;;;;;;5.43;3.28;;;25.30;39.60;;;;;;6110113;22;114205;-78
2023/07/21 08:36:06;;;;;;;4.60;3.00;;;25.40;39.20;;;;;;6107350;23;115135;-78
2023/07/21 08:38:33;;;;;;;6.50;3.03;;;25.50;39.30;;;;;;6107442;23;114771;-79
2023/07/21 08:41:08;;;;;;;4.70;3.25;;;25.50;39.30;;;;;;6107487;23;114309;-78
2023/07/21 08:43:35;;;;;;;4.65;2.67;;;25.60;39.40;;;;;;6109728;22;114057;-78
2023/07/21 08:46:03;;;;;;;4.68;2.58;;;25.50;39.20;;;;;;6108670;23;114805;-78
2023/07/21 08:48:30;;;;;;;3.88;2.90;;;25.50;39.30;;;;;;6106890;23;114564;-78
2023/07/21 08:50:57;;;;;;;5.95;2.97;;;25.50;39.60;;;;;;6109589;23;114323;-78
2023/07/21 08:53:25;;;;;;;4.55;2.70;;;25.50;39.50;;;;;;6108023;23;114573;-78
2023/07/21 08:55:53;;;;;;;5.18;3.08;;;25.50;39.60;;;;;;6107139;23;115981;-78
2023/07/21 08:58:23;;;;;;;4.25;2.70;;;25.40;40.10;;;;;;6109007;23;115652;-79
2023/07/21 09:00:54;;;;;;;4.20;2.80;;;25.30;40.00;;;;;;6110964;22;114019;-78
2023/07/21 09:03:26;;;;;;;4.28;2.63;;;25.20;40.30;;;;;;6109476;23;114490;-78
2023/07/21 09:05:55;;;;;;;5.03;2.70;;;25.30;40.60;;;;;;6109486;23;114818;-79
2023/07/21 09:08:24;;;;;;;4.28;2.72;;;25.20;40.20;;;;;;6108460;23;114494;-79
2023/07/21 09:10:51;;;;;;;4.28;2.40;;;25.10;40.50;;;;;;6109215;23;114210;-78
2023/07/21 09:13:19;;;;;;;4.22;2.88;;;25.00;40.50;;;;;;6110817;23;114083;-79
2023/07/21 09:15:51;;;;;;;4.93;2.92;;;24.90;40.90;;;;;;6084374;23;115103;-79
2023/07/21 09:18:23;;;;;;;4.05;2.60;;;24.80;41.30;;;;;;6108465;23;115684;-78
2023/07/21 09:20:50;;;;;;;4.75;2.63;;;25.00;41.10;;;;;;6109587;23;114205;-78
2023/07/21 09:23:20;;;;;;;7.10;2.80;;;25.10;41.00;;;;;;6111572;22;114143;-78
2023/07/21 09:25:53;;;;;;;5.05;2.97;;;25.20;40.90;;;;;;6109925;22;114837;-78
2023/07/21 09:28:21;;;;;;;5.72;2.97;;;25.30;40.60;;;;;;6108263;23;117496;-78
2023/07/21 09:30:51;;;;;;;4.53;2.60;;;25.30;40.70;;;;;;6110174;23;113951;-78
2023/07/21 09:33:23;;;;;;;6.05;2.40;;;25.30;40.30;;;;;;6109464;23;113994;-80
2023/07/21 09:36:04;;;;;;;5.93;2.70;;;25.40;40.00;;;;;;6109840;23;116928;-78
2023/07/21 09:38:33;;;;;;;4.57;2.50;;;25.30;40.00;;;;;;6109709;23;114648;-79
2023/07/21 09:41:07;;;;;;;5.93;2.60;;;25.30;40.10;;;;;;6109898;23;114194;-79
2023/07/21 09:43:34;;;;;;;4.70;2.47;;;25.30;40.00;;;;;;6110715;23;114097;-80
2023/07/21 09:46:02;;;;;;;5.00;2.72;;;25.10;40.30;;;;;;6083751;23;118206;-79
2023/07/21 09:48:44;;;;;;;4.68;3.00;;;25.20;40.70;;;;;;6108398;23;116978;-78
2023/07/21 09:51:11;;;;;;;4.13;2.78;;;25.30;40.20;;;;;;6110632;23;114276;-79
2023/07/21 09:53:43;;;;;;;4.03;2.47;;;25.10;40.10;;;;;;6111539;22;114304;-79
2023/07/21 09:56:11;;;;;;;4.68;3.10;;;25.00;40.10;;;;;;6109522;23;117756;-78
2023/07/21 09:58:45;;;;;;;5.05;3.00;;;24.90;40.10;;;;;;6109744;22;114950;-78
2023/07/21 10:01:12;;;;;;;5.05;2.53;;;24.80;40.80;;;;;;6085503;23;113977;-77
2023/07/21 10:03:40;;;;;;;6.40;3.00;;;24.80;40.80;;;;;;6109137;23;114222;-77
2023/07/21 10:06:25;;;;;;;5.95;2.90;;;24.80;40.20;;;;;;6087933;23;114575;-79
2023/07/21 10:08:53;;;;;;;5.22;3.10;;;24.80;40.50;;;;;;6109161;23;114590;-79
2023/07/21 10:11:20;;;;;;;4.63;2.92;;;24.80;40.60;;;;;;6084354;23;114399;-78
2023/07/21 10:13:47;;;;;;;5.22;2.72;;;24.90;40.80;;;;;;6109543;23;114089;-79
2023/07/21 10:16:15;;;;;;;5.38;2.78;;;25.00;40.80;;;;;;6109626;23;114862;-78
2023/07/21 10:19:01;;;;;;;5.05;2.97;;;25.10;40.70;;;;;;6083742;23;117428;-77
2023/07/21 10:21:50;;;;;;;4.82;3.08;;;25.30;40.50;;;;;;6108586;23;114184;-79
2023/07/21 10:24:27;;;;;;;4.68;2.83;;;25.30;40.50;;;;;;6109114;23;114293;-78
2023/07/21 10:26:56;;;;;;;5.93;3.03;;;25.30;40.70;;;;;;6109581;23;115513;-79
2023/07/21 10:29:23;;;;;;;3.85;2.67;;;25.40;40.00;;;;;;6108084;23;114560;-79
2023/07/21 10:31:57;;;;;;;7.82;3.17;;;25.40;39.70;;;;;;6109695;23;114235;-78
2023/07/21 10:34:36;;;;;;;;;;;25.40;39.70;;;;;;6110988;23;114316;-78
2023/07/21 10:37:07;;;;;;;4.20;2.70;;;25.20;39.90;;;;;;6109579;23;116867;-78
2023/07/21 10:39:42;;;;;;;5.05;3.10;;;25.10;40.60;;;;;;6108610;23;114667;-78
2023/07/21 10:42:12;;;;;;;7.72;2.90;;;25.10;40.20;;;;;;6085752;23;114113;-78
2023/07/21 10:44:41;;;;;;;4.78;2.88;;;25.10;40.40;;;;;;6108985;23;114289;-78
2023/07/21 10:47:16;;;;;;;3.97;2.58;;;25.20;40.40;;;;;;6108913;23;114789;-78
2023/07/21 10:49:44;;;;;;;5.93;2.97;;;25.20;40.50;;;;;;6107797;23;115629;-78
2023/07/21 10:52:11;;;;;;;4.38;2.70;;;25.20;40.30;;;;;;6108972;23;114427;-78
2023/07/21 10:54:38;;;;;;;4.30;2.75;;;25.30;40.20;;;;;;6110238;22;114166;-79
2023/07/21 10:57:06;;;;;;;5.07;3.28;;;25.30;39.90;;;;;;6109514;23;115386;-79
2023/07/21 10:59:35;;;;;;;5.32;3.00;;;25.20;40.00;;;;;;6107981;23;114539;-80
2023/07/21 11:02:03;;;;;;;5.05;3.00;;;25.10;39.80;;;;;;6109182;22;114087;-80
2023/07/21 11:04:31;;;;;;;5.47;3.13;;;25.00;40.00;;;;;;6085004;23;114017;-79
2023/07/21 11:06:58;;;;;;;3.45;2.58;;;24.80;40.60;;;;;;6109454;23;115441;-79
2023/07/21 11:09:27;;;;;;;4.38;2.83;;;24.80;40.90;;;;;;6107975;23;114560;-79
2023/07/21 11:11:57;;;;;;;5.13;3.00;;;24.80;40.80;;;;;;6132975;22;114118;-79
2023/07/21 11:14:25;;;;;;;4.38;2.35;;;24.80;40.90;;;;;;6084157;23;114127;-79
2023/07/21 11:16:54;;;;;;;4.05;2.85;;;24.80;41.00;;;;;;6109303;23;114297;-79
2023/07/21 11:19:23;;;;;;;4.35;2.35;;;25.00;40.00;;;;;;6107897;23;114602;-79
2023/07/21 11:21:51;;;;;;;4.45;2.90;;;25.10;40.30;;;;;;6108785;23;114116;-78
2023/07/21 11:24:23;;;;;;;5.00;2.80;;;25.10;40.30;;;;;;6110265;23;114120;-79
2023/07/21 11:26:50;;;;;;;4.45;3.00;;;25.00;40.40;;;;;;6109314;22;114790;-78
2023/07/21 11:29:18;;;;;;;7.03;3.03;;;24.90;40.70;;;;;;6108261;23;115071;-78
2023/07/21 11:31:45;;;;;;;4.82;2.90;;;24.80;41.20;;;;;;6110138;22;114282;-79
2023/07/21 11:34:26;;;;;;;5.07;2.80;;;24.70;41.30;;;;;;6110215;23;114177;-79
2023/07/21 11:36:59;;;;;;;5.72;2.95;;;24.70;41.60;;;;;;6107244;23;115424;-79
2023/07/21 11:39:27;;;;;;;5.07;2.97;;;24.70;41.70;;;;;;6109196;22;115957;-79
2023/07/21 11:41:55;;;;;;;5.60;3.17;;;24.60;41.70;;;;;;6110185;23;114108;-79
2023/07/21 11:44:30;;;;;;;6.05;3.00;;;24.60;41.80;;;;;;6108725;23;114662;-78
2023/07/21 11:47:10;;;;;;;5.68;2.80;;;24.50;42.10;;;;;;6107743;23;114921;-79
2023/07/21 11:49:41;;;;;;;4.65;2.90;;;24.70;41.40;;;;;;6109002;23;114533;-77
2023/07/21 11:52:09;;;;;;;5.15;2.97;;;24.80;41.20;;;;;;6133478;22;113997;-78
2023/07/21 11:54:41;;;;;;;5.20;3.05;;;25.00;40.90;;;;;;6108680;23;114601;-78
2023/07/21 11:57:09;;;;;;;4.90;3.10;;;25.10;40.60;;;;;;6083759;23;116301;-78
2023/07/21 11:59:37;;;;;;;6.65;3.50;;;24.80;41.00;;;;;;6107665;23;114445;-78
2023/07/21 12:02:05;;;;;;;5.40;2.90;;;24.60;41.50;;;;;;6107838;23;114345;-78
2023/07/21 12:04:33;;;;;;;6.63;3.38;;;24.50;42.00;;;;;;6110018;22;114048;-78
2023/07/21 12:07:00;;;;;;;4.47;3.20;;;24.70;42.00;;;;;;6109050;23;115042;-78
2023/07/21 12:09:28;;;;;;;5.68;3.33;;;24.80;41.80;;;;;;6108990;22;114727;-78
2023/07/21 12:11:55;;;;;;;5.82;3.85;;;24.80;41.80;;;;;;6108409;23;114263;-78
2023/07/21 12:14:25;;;;;;;6.53;3.60;;;24.90;41.90;;;;;;6108425;23;114231;-78
2023/07/21 12:16:55;;;;;;;7.63;3.33;;;25.10;41.70;;;;;;6108910;23;114799;-78
2023/07/21 12:19:29;;;;;;;5.70;3.90;;;25.20;41.50;;;;;;6107896;23;116959;-78
2023/07/21 12:21:57;;;;;;;6.65;3.83;;;25.20;41.60;;;;;;6108476;23;114391;-79
2023/07/21 12:24:24;;;;;;;7.25;3.72;;;25.10;41.90;;;;;;6108241;23;114259;-79
2023/07/21 12:26:52;;;;;;;4.70;3.65;;;25.10;42.40;;;;;;6108451;23;115140;-79
2023/07/21 12:29:19;;;;;;;5.90;3.00;;;24.90;42.50;;;;;;6107675;23;114801;-79
2023/07/21 12:32:04;;;;;;;5.07;3.10;;;24.70;42.70;;;;;;6111177;23;114122;-78
2023/07/21 12:34:32;;;;;;;6.28;3.00;;;24.60;43.30;;;;;;6111453;23;114191;-78
2023/07/21 12:36:59;;;;;;;4.43;2.80;;;24.40;43.80;;;;;;6110113;23;114790;-78
2023/07/21 12:39:26;;;;;;;4.82;3.10;;;24.40;42.90;;;;;;6110101;23;114560;-78
2023/07/21 12:41:53;;;;;;;6.03;3.15;;;24.30;43.10;;;;;;6110914;23;114097;-79
2023/07/21 12:44:23;;;;;;;6.05;2.88;;;24.30;43.10;;;;;;6111427;23;114064;-78
2023/07/21 12:46:51;;;;;;;4.22;2.45;;;24.30;43.20;;;;;;6110100;23;115835;-79
2023/07/21 12:49:18;;;;;;;3.70;2.60;;;24.20;43.40;;;;;;6108340;23;114584;-78